Portada
METAR-TAF:

METAR-TAF

Aeroports :

Sandakan, Malàisia

latitud: 05-54N, longitud: 118-04E, altitud: 12 m

Observació

L'informe es va fer fa 23 minuts, a les 17:00 UTC
Vent calma
Temperatura 25°C
Humitat 94%
Pressió 1011 hPa
Visibilitat: 8000 m
Escasses núvols a una alçada de 1600 ft
Cel ennuvolat a una alçada de 30000 ft

METAR: WBKS 211700Z 00000KT 8000 FEW016 BKN300 25/24 Q1011

Hora: 01:23 (17:23 UTC)

Pronòstic

L'informe es va fer fa 6 hores i 23 minuts, a les 11:00 UTC
Pronòstic vàlid del 21 a les 12 UTC al 22 a les 12 UTC
Vent 5 kt del Est
Visibilitat: 8000 m
Escasses núvols a una alçada de 1600 ft

TAF: WBKS 211100Z 2112/2212 10005KT 8000 FEW016

Observacions i pronòstics meteorològics de més de 4000 aeroports (METAR i TAF).

Les estacions disponibles són els punts grocs i vermells al mapa.

Posi el ratolí al punt desitjat per veure el nom de l'estació.

Feu clic per veure les observacions i els pronòstics meteorològics.

Per canviar el mapa: feu clic els botons verds amb una creu de color negre per apropar; al botó verd amb un guió per allunyar la imatge; o en les fletxes verdes per a mapes adjacents.


METAR-TAF: